createdAt,value
2022-11-13T00:02:00.472Z,8.50
2022-11-13T00:04:41.486Z,9.77
2022-11-13T00:07:22.582Z,9.33
2022-11-13T00:10:03.590Z,8.30
2022-11-13T00:12:44.554Z,7.30
2022-11-13T00:15:25.794Z,6.97
2022-11-13T00:18:06.800Z,7.57
2022-11-13T00:20:47.655Z,6.80
2022-11-13T00:23:28.602Z,7.03
2022-11-13T00:26:11.062Z,6.50
2022-11-13T00:28:56.269Z,6.80
2022-11-13T00:31:37.455Z,6.80
2022-11-13T00:34:47.032Z,6.40
2022-11-13T00:37:19.411Z,6.73
2022-11-13T00:40:00.268Z,5.80
2022-11-13T00:42:41.216Z,5.77
2022-11-13T00:45:22.383Z,5.80
2022-11-13T00:48:03.207Z,5.53
2022-11-13T00:50:44.160Z,5.80
2022-11-13T00:53:24.970Z,7.00
2022-11-13T00:56:06.168Z,6.77
2022-11-13T00:58:46.830Z,7.33
2022-11-13T01:01:27.995Z,6.70
2022-11-13T01:04:09.162Z,6.67
2022-11-13T01:06:50.154Z,5.03
2022-11-13T01:09:31.255Z,6.97
2022-11-13T01:12:12.661Z,5.93
2022-11-13T01:14:53.736Z,5.60
2022-11-13T01:17:34.548Z,5.10
2022-11-13T01:20:15.656Z,5.87
2022-11-13T01:22:56.572Z,6.40
2022-11-13T01:25:37.442Z,6.30
2022-11-13T01:28:18.482Z,5.83
2022-11-13T01:30:59.468Z,5.70
2022-11-13T01:33:40.463Z,5.40
2022-11-13T01:36:25.868Z,5.53
2022-11-13T01:39:06.727Z,6.43
2022-11-13T01:41:47.488Z,5.43
2022-11-13T01:44:45.832Z,7.10
2022-11-13T01:47:26.593Z,5.47
2022-11-13T01:50:11.040Z,6.30
2022-11-13T01:52:52.013Z,5.57
2022-11-13T01:55:32.966Z,5.13
2022-11-13T01:58:13.942Z,6.20
2022-11-13T02:00:55.020Z,5.07
2022-11-13T02:03:36.048Z,5.57
2022-11-13T02:06:17.264Z,6.67
2022-11-13T02:08:58.573Z,7.03
2022-11-13T02:11:40.049Z,5.77
2022-11-13T02:14:22.008Z,5.63
2022-11-13T02:17:05.236Z,4.50
2022-11-13T02:19:47.985Z,6.87
2022-11-13T02:22:47.434Z,5.57
2022-11-13T02:25:29.274Z,4.97
2022-11-13T02:28:10.147Z,4.70
2022-11-13T02:30:51.173Z,5.23
2022-11-13T02:33:34.492Z,5.50
2022-11-13T02:36:15.596Z,5.57
2022-11-13T02:38:57.995Z,4.37
2022-11-13T02:41:39.074Z,4.70
2022-11-13T02:44:20.103Z,6.60
2022-11-13T02:47:01.232Z,5.73
2022-11-13T02:49:41.977Z,5.50
2022-11-13T02:52:22.851Z,5.77
2022-11-13T02:55:06.005Z,5.23
2022-11-13T02:57:46.885Z,5.20
2022-11-13T03:00:28.012Z,6.10
2022-11-13T03:03:08.939Z,5.67
2022-11-13T03:05:50.958Z,5.97
2022-11-13T03:08:32.970Z,5.33
2022-11-13T03:11:14.500Z,5.47
2022-11-13T03:13:55.278Z,5.10
2022-11-13T03:16:36.464Z,5.60
2022-11-13T03:19:17.100Z,6.90
2022-11-13T03:21:57.946Z,7.57
2022-11-13T03:24:38.690Z,5.40
2022-11-13T03:27:20.114Z,5.70
2022-11-13T03:30:01.382Z,6.23
2022-11-13T03:32:41.937Z,5.90
2022-11-13T03:35:23.483Z,5.47
2022-11-13T03:38:04.415Z,6.90
2022-11-13T03:40:45.370Z,5.83
2022-11-13T03:43:26.360Z,5.67
2022-11-13T03:46:07.509Z,6.23
2022-11-13T03:48:48.414Z,6.37
2022-11-13T03:51:29.158Z,5.73
2022-11-13T03:54:10.293Z,5.60
2022-11-13T03:56:51.231Z,5.67
2022-11-13T03:59:32.030Z,7.00
2022-11-13T04:02:12.960Z,6.10
2022-11-13T04:04:53.951Z,6.00
2022-11-13T04:07:35.108Z,6.07
2022-11-13T04:10:15.844Z,6.03
2022-11-13T04:12:56.837Z,7.27
2022-11-13T04:15:37.827Z,5.60
2022-11-13T04:18:18.319Z,5.20
2022-11-13T04:21:03.321Z,6.77
2022-11-13T04:23:44.430Z,5.60
2022-11-13T04:26:25.512Z,6.13
2022-11-13T04:29:06.458Z,5.93
2022-11-13T04:31:47.395Z,6.33
2022-11-13T04:34:28.449Z,13.83
2022-11-13T04:37:09.505Z,8.80
2022-11-13T04:39:50.472Z,6.63
2022-11-13T04:42:49.748Z,5.80
2022-11-13T04:45:30.468Z,5.70
2022-11-13T04:48:11.371Z,5.27
2022-11-13T04:50:52.301Z,5.27
2022-11-13T04:53:34.619Z,5.40
2022-11-13T04:56:15.553Z,6.07
2022-11-13T04:58:56.550Z,6.13
2022-11-13T05:01:37.592Z,5.30
2022-11-13T05:04:18.538Z,6.40
2022-11-13T05:06:59.514Z,5.20
2022-11-13T05:09:40.683Z,5.87
2022-11-13T05:12:21.614Z,5.43
2022-11-13T05:15:02.362Z,7.67
2022-11-13T05:17:43.237Z,7.40
2022-11-13T05:20:24.383Z,5.20
2022-11-13T05:23:05.315Z,4.60
2022-11-13T05:25:46.454Z,5.20
2022-11-13T05:28:27.800Z,5.27
2022-11-13T05:31:10.494Z,6.17
2022-11-13T05:33:51.992Z,5.20
2022-11-13T05:36:32.996Z,9.00
2022-11-13T05:39:13.812Z,6.53
2022-11-13T05:41:54.694Z,5.60
2022-11-13T05:44:35.798Z,5.77
2022-11-13T05:47:17.802Z,5.57
2022-11-13T05:49:58.768Z,6.23
2022-11-13T05:52:39.713Z,5.27
2022-11-13T05:55:23.324Z,5.73
2022-11-13T05:58:04.580Z,5.70
2022-11-13T06:00:45.619Z,5.63
2022-11-13T06:03:26.653Z,5.93
2022-11-13T06:06:17.360Z,5.53
2022-11-13T06:08:59.678Z,6.47
2022-11-13T06:11:45.058Z,6.50
2022-11-13T06:14:26.004Z,6.97
2022-11-13T06:17:07.206Z,6.33
2022-11-13T06:19:48.613Z,7.20
2022-11-13T06:22:29.490Z,6.83
2022-11-13T06:25:10.580Z,6.83
2022-11-13T06:27:51.547Z,6.93
2022-11-13T06:30:32.455Z,6.77
2022-11-13T06:33:13.558Z,6.33
2022-11-13T06:35:54.553Z,6.47
2022-11-13T06:38:36.789Z,6.70
2022-11-13T06:41:19.568Z,7.47
2022-11-13T06:44:03.290Z,6.67
2022-11-13T06:46:44.259Z,7.47
2022-11-13T06:49:25.247Z,7.50
2022-11-13T06:52:07.422Z,7.00
2022-11-13T06:54:48.435Z,8.63
2022-11-13T06:57:32.296Z,9.77
2022-11-13T07:00:16.048Z,7.07
2022-11-13T07:02:57.212Z,7.07
2022-11-13T07:05:38.276Z,7.13
2022-11-13T07:08:19.308Z,6.70
2022-11-13T07:11:00.409Z,7.80
2022-11-13T07:13:41.705Z,7.30
2022-11-13T07:16:22.341Z,7.70
2022-11-13T07:19:03.646Z,7.70
2022-11-13T07:21:44.664Z,7.67
2022-11-13T07:24:25.684Z,7.40
2022-11-13T07:27:08.713Z,7.60
2022-11-13T07:29:49.663Z,8.37
2022-11-13T07:32:34.818Z,8.10
2022-11-13T07:35:16.949Z,9.00
2022-11-13T07:38:08.283Z,7.67
2022-11-13T07:40:49.041Z,7.60
2022-11-13T07:43:30.479Z,8.00
2022-11-13T07:46:14.331Z,8.07
2022-11-13T07:48:58.223Z,8.87
2022-11-13T07:51:39.099Z,6.50
2022-11-13T07:54:20.246Z,7.40
2022-11-13T07:57:01.426Z,6.90
2022-11-13T07:59:42.692Z,7.93
2022-11-13T08:02:26.654Z,7.30
2022-11-13T08:05:10.803Z,7.40
2022-11-13T08:07:53.081Z,7.37
2022-11-13T08:10:37.879Z,6.70
2022-11-13T08:13:19.004Z,6.40
2022-11-13T08:16:02.740Z,6.40
2022-11-13T08:18:49.967Z,7.03
2022-11-13T08:21:30.922Z,6.37
2022-11-13T08:24:12.189Z,6.97
2022-11-13T08:26:53.625Z,7.00
2022-11-13T08:29:37.295Z,8.10
2022-11-13T08:32:18.899Z,6.77
2022-11-13T08:34:59.782Z,6.37
2022-11-13T08:37:40.900Z,6.47
2022-11-13T08:40:28.093Z,7.13
2022-11-13T08:43:08.988Z,6.93
2022-11-13T08:45:50.767Z,8.37
2022-11-13T08:48:34.414Z,6.77
2022-11-13T08:51:15.580Z,6.83
2022-11-13T08:53:56.519Z,7.57
2022-11-13T08:56:39.779Z,5.90
2022-11-13T08:59:23.717Z,7.80
2022-11-13T09:02:07.372Z,6.50
2022-11-13T09:04:48.347Z,6.73
2022-11-13T09:07:29.345Z,7.57
2022-11-13T09:10:10.330Z,7.70
2022-11-13T09:12:56.492Z,5.97
2022-11-13T09:15:38.612Z,6.90
2022-11-13T09:18:19.332Z,6.03
2022-11-13T09:21:03.403Z,5.97
2022-11-13T09:23:44.340Z,6.10
2022-11-13T09:26:25.430Z,5.80
2022-11-13T09:29:06.569Z,7.93
2022-11-13T09:31:47.805Z,6.67
2022-11-13T09:34:30.320Z,6.23
2022-11-13T09:37:11.441Z,6.27
2022-11-13T09:39:52.472Z,7.60
2022-11-13T09:42:34.075Z,6.50
2022-11-13T09:45:16.144Z,7.07
2022-11-13T09:47:59.415Z,7.20
2022-11-13T09:50:40.683Z,6.33
2022-11-13T09:53:21.473Z,6.33
2022-11-13T09:56:08.536Z,5.70
2022-11-13T09:58:52.196Z,5.07
2022-11-13T10:02:02.300Z,4.50
2022-11-13T10:05:06.256Z,4.57
2022-11-13T10:08:08.111Z,4.00
2022-11-13T10:10:55.478Z,4.47
2022-11-13T10:13:45.885Z,3.43
2022-11-13T10:16:35.968Z,3.90
2022-11-13T10:19:20.078Z,3.37
2022-11-13T10:22:31.132Z,3.37
2022-11-13T10:25:10.726Z,3.57
2022-11-13T10:27:57.131Z,3.77
2022-11-13T10:30:37.702Z,4.03
2022-11-13T10:33:19.690Z,3.60
2022-11-13T10:36:08.002Z,4.20
2022-11-13T10:38:50.110Z,3.90
2022-11-13T10:41:31.099Z,3.63
2022-11-13T10:44:41.407Z,3.80
2022-11-13T10:47:48.953Z,4.00
2022-11-13T10:50:31.516Z,3.73
2022-11-13T10:53:16.876Z,4.00
2022-11-13T10:55:58.482Z,4.43
2022-11-13T10:58:39.476Z,4.20
2022-11-13T11:01:23.909Z,3.80
2022-11-13T11:04:06.354Z,3.73
2022-11-13T11:09:48.714Z,3.93
2022-11-13T11:12:31.269Z,3.77
2022-11-13T11:15:24.576Z,3.83
2022-11-13T11:18:07.870Z,3.37
2022-11-13T11:20:51.862Z,3.40
2022-11-13T11:23:55.827Z,3.90
2022-11-13T11:26:40.496Z,4.13
2022-11-13T11:29:27.243Z,4.10
2022-11-13T11:32:08.316Z,4.07
2022-11-13T11:35:12.304Z,4.33
2022-11-13T11:38:05.614Z,3.40
2022-11-13T11:40:48.692Z,3.60
2022-11-13T11:43:35.892Z,3.92
2022-11-13T11:46:20.763Z,3.40
2022-11-13T11:49:02.251Z,3.45
2022-11-13T11:51:57.467Z,3.05
2022-11-13T11:54:43.906Z,3.10
2022-11-13T11:57:40.235Z,3.38
2022-11-13T12:00:22.413Z,3.20
2022-11-13T12:03:06.142Z,3.20
2022-11-13T12:06:16.765Z,3.20
2022-11-13T12:09:18.226Z,3.25
2022-11-13T12:12:08.938Z,2.70
2022-11-13T12:15:09.199Z,2.70
2022-11-13T12:17:50.131Z,2.83
2022-11-13T12:23:36.483Z,3.20
2022-11-13T12:26:30.234Z,2.97
2022-11-13T12:29:28.111Z,2.67
2022-11-13T12:32:29.670Z,2.95
2022-11-13T12:43:01.154Z,3.75
2022-11-13T12:49:37.922Z,2.80
2022-11-13T12:52:39.324Z,2.78
2022-11-13T12:55:47.511Z,3.10
2022-11-13T12:58:32.227Z,2.30
2022-11-13T13:01:19.442Z,2.85
2022-11-13T13:04:18.500Z,2.40
2022-11-13T13:07:12.104Z,2.45
2022-11-13T13:13:24.690Z,2.00
2022-11-13T13:16:08.779Z,2.10
2022-11-13T13:19:09.844Z,2.28
2022-11-13T13:21:56.577Z,2.58
2022-11-13T13:24:57.637Z,1.80
2022-11-13T13:31:03.631Z,2.05
2022-11-13T13:34:36.252Z,5.05
2022-11-13T13:37:17.167Z,2.63
2022-11-13T13:40:02.436Z,2.22
2022-11-13T13:46:52.723Z,2.10
2022-11-13T13:50:07.599Z,2.15
2022-11-13T13:52:55.325Z,2.17
2022-11-13T13:55:48.255Z,2.22
2022-11-13T13:58:34.725Z,1.95
2022-11-13T14:01:26.736Z,2.63
2022-11-13T14:04:14.166Z,1.85
2022-11-13T14:07:18.865Z,1.88
2022-11-13T14:10:07.532Z,2.38
2022-11-13T14:16:23.908Z,1.70
2022-11-13T14:19:05.789Z,2.05
2022-11-13T14:21:48.213Z,1.90
2022-11-13T14:24:36.717Z,1.90
2022-11-13T14:27:31.632Z,1.95
2022-11-13T14:37:26.914Z,2.00
2022-11-13T14:40:15.954Z,2.03
2022-11-13T14:42:59.939Z,1.70
2022-11-13T14:45:41.010Z,1.92
2022-11-13T14:48:44.928Z,1.70
2022-11-13T14:51:28.829Z,1.73
2022-11-13T14:54:46.825Z,1.40
2022-11-13T14:57:33.406Z,1.90
2022-11-13T15:00:33.501Z,1.90
2022-11-13T15:03:33.862Z,1.77
2022-11-13T15:06:19.120Z,1.35
2022-11-13T15:09:00.778Z,1.70
2022-11-13T15:11:42.470Z,2.15
2022-11-13T15:14:23.523Z,1.83
2022-11-13T15:17:04.609Z,1.80
2022-11-13T15:19:46.398Z,1.77
2022-11-13T15:22:28.317Z,1.65
2022-11-13T15:25:13.885Z,2.05
2022-11-13T15:27:54.817Z,1.75
2022-11-13T15:30:35.832Z,1.90
2022-11-13T15:33:17.342Z,1.80
2022-11-13T15:36:04.713Z,2.28
2022-11-13T15:38:47.314Z,5.85
2022-11-13T15:41:29.059Z,10.07
2022-11-13T15:44:14.558Z,6.82
2022-11-13T15:46:55.619Z,2.85
2022-11-13T15:49:36.739Z,2.10
2022-11-13T15:52:17.495Z,2.03
2022-11-13T15:54:58.877Z,2.00
2022-11-13T15:57:39.518Z,2.30
2022-11-13T16:00:24.942Z,2.13
2022-11-13T16:03:12.028Z,3.10
2022-11-13T16:05:52.778Z,2.90
2022-11-13T16:08:33.613Z,3.60
2022-11-13T16:11:18.685Z,4.47
2022-11-13T16:14:00.005Z,3.67
2022-11-13T16:16:41.542Z,3.80
2022-11-13T16:19:24.138Z,3.60
2022-11-13T16:22:08.915Z,4.30
2022-11-13T16:24:49.548Z,3.93
2022-11-13T16:27:32.164Z,4.17
2022-11-13T16:30:20.258Z,4.20
2022-11-13T16:33:05.745Z,3.80
2022-11-13T16:35:46.682Z,4.30
2022-11-13T16:38:27.552Z,4.20
2022-11-13T16:41:14.512Z,3.37
2022-11-13T16:43:55.235Z,3.60
2022-11-13T16:46:37.978Z,3.80
2022-11-13T16:49:21.584Z,3.70
2022-11-13T16:52:02.330Z,3.70
2022-11-13T16:54:43.353Z,3.93
2022-11-13T16:57:24.429Z,3.60
2022-11-13T17:00:11.997Z,3.93
2022-11-13T17:02:52.840Z,4.07
2022-11-13T17:05:33.931Z,3.57
2022-11-13T17:08:14.914Z,4.13
2022-11-13T17:10:57.483Z,3.97
2022-11-13T17:13:38.557Z,5.40
2022-11-13T17:16:19.780Z,15.40
2022-11-13T17:19:01.068Z,13.53
2022-11-13T17:21:44.472Z,4.40
2022-11-13T17:24:25.687Z,5.33
2022-11-13T17:27:07.823Z,4.23
2022-11-13T17:29:48.342Z,5.03
2022-11-13T17:32:30.579Z,5.50
2022-11-13T17:35:13.129Z,5.80
2022-11-13T17:37:53.668Z,5.40
2022-11-13T17:40:34.482Z,6.03
2022-11-13T17:43:15.406Z,5.23
2022-11-13T17:45:56.431Z,4.83
2022-11-13T17:48:37.449Z,4.43
2022-11-13T17:51:18.484Z,5.17
2022-11-13T17:53:59.562Z,5.00
2022-11-13T17:56:42.711Z,4.57
2022-11-13T17:59:23.576Z,4.67
2022-11-13T18:02:04.832Z,6.33
2022-11-13T18:04:45.667Z,5.57
2022-11-13T18:07:26.727Z,4.87
2022-11-13T18:10:08.062Z,4.50
2022-11-13T18:12:48.953Z,4.33
2022-11-13T18:15:30.293Z,5.17
2022-11-13T18:18:11.201Z,5.43
2022-11-13T18:20:55.771Z,5.60
2022-11-13T18:23:37.122Z,5.33
2022-11-13T18:26:19.142Z,5.37
2022-11-13T18:29:00.959Z,4.60
2022-11-13T18:31:42.110Z,4.20
2022-11-13T18:34:25.690Z,4.40
2022-11-13T18:37:09.182Z,4.77
2022-11-13T18:39:50.417Z,4.80
2022-11-13T18:42:31.384Z,4.73
2022-11-13T18:45:16.279Z,4.57
2022-11-13T18:48:03.275Z,5.43
2022-11-13T18:50:54.908Z,4.83
2022-11-13T18:53:36.733Z,4.70
2022-11-13T18:56:18.572Z,4.83
2022-11-13T18:59:00.459Z,4.50
2022-11-13T19:01:42.040Z,5.07
2022-11-13T19:04:24.128Z,4.50
2022-11-13T19:07:05.891Z,4.67
2022-11-13T19:09:52.801Z,5.50
2022-11-13T19:12:33.756Z,5.23
2022-11-13T19:15:14.820Z,9.97
2022-11-13T19:17:55.903Z,5.50
2022-11-13T19:20:39.152Z,5.23
2022-11-13T19:23:20.187Z,5.30
2022-11-13T19:26:01.111Z,5.30
2022-11-13T19:28:42.587Z,5.97
2022-11-13T19:31:25.719Z,4.87
2022-11-13T19:34:07.581Z,5.87
2022-11-13T19:36:51.258Z,5.13
2022-11-13T19:39:32.041Z,6.13
2022-11-13T19:42:12.848Z,5.90
2022-11-13T19:44:53.724Z,6.20
2022-11-13T19:47:34.717Z,6.70
2022-11-13T19:50:15.972Z,8.30
2022-11-13T19:52:56.947Z,9.47
2022-11-13T19:55:37.917Z,10.87
2022-11-13T19:58:18.842Z,9.60
2022-11-13T20:01:00.479Z,8.40
2022-11-13T20:03:41.849Z,9.07
2022-11-13T20:06:22.874Z,8.53
2022-11-13T20:09:04.486Z,9.03
2022-11-13T20:11:45.755Z,8.57
2022-11-13T20:14:26.909Z,8.87
2022-11-13T20:17:08.026Z,7.73
2022-11-13T20:19:49.093Z,6.90
2022-11-13T20:22:30.098Z,6.73
2022-11-13T20:25:11.119Z,7.43
2022-11-13T20:27:52.070Z,6.80
2022-11-13T20:30:32.908Z,7.47
2022-11-13T20:33:17.230Z,7.10
2022-11-13T20:36:01.337Z,7.70
2022-11-13T20:38:44.418Z,8.10
2022-11-13T20:41:25.804Z,8.70
2022-11-13T20:44:06.638Z,9.13
2022-11-13T20:46:47.598Z,7.90
2022-11-13T20:49:28.880Z,7.97
2022-11-13T20:52:10.780Z,8.63
2022-11-13T20:54:51.636Z,9.17
2022-11-13T20:57:35.568Z,11.53
2022-11-13T21:00:20.711Z,8.93
2022-11-13T21:03:01.731Z,9.83
2022-11-13T21:05:42.771Z,11.47
2022-11-13T21:08:23.634Z,9.67
2022-11-13T21:11:08.418Z,9.87
2022-11-13T21:13:49.679Z,9.90
2022-11-13T21:16:30.846Z,11.50
2022-11-13T21:19:11.879Z,10.90
2022-11-13T21:21:52.878Z,12.67
2022-11-13T21:24:33.916Z,14.33
2022-11-13T21:27:14.970Z,21.43
2022-11-13T21:29:55.978Z,16.43
2022-11-13T21:32:38.685Z,15.37
2022-11-13T21:35:22.733Z,12.93
2022-11-13T21:38:05.350Z,10.10
2022-11-13T21:41:06.478Z,9.30
2022-11-13T21:44:02.409Z,9.33
2022-11-13T21:46:43.276Z,9.40
2022-11-13T21:49:24.229Z,11.00
2022-11-13T21:52:05.045Z,10.30
2022-11-13T21:54:46.052Z,9.23
2022-11-13T21:57:27.110Z,8.60
2022-11-13T22:00:08.103Z,7.63
2022-11-13T22:02:49.015Z,8.27
2022-11-13T22:05:30.131Z,7.77
2022-11-13T22:08:11.249Z,7.30
2022-11-13T22:10:52.059Z,6.83
2022-11-13T22:13:33.139Z,7.00
2022-11-13T22:16:14.050Z,9.27
2022-11-13T22:18:55.690Z,8.90
2022-11-13T22:21:36.807Z,8.37
2022-11-13T22:24:19.474Z,9.53
2022-11-13T22:27:00.657Z,8.50
2022-11-13T22:29:41.679Z,8.23
2022-11-13T22:32:22.820Z,8.23
2022-11-13T22:35:03.531Z,8.80
2022-11-13T22:37:44.569Z,7.37
2022-11-13T22:40:26.655Z,7.80
2022-11-13T22:43:07.348Z,7.67
2022-11-13T22:45:48.240Z,8.20
2022-11-13T22:48:29.327Z,7.77
2022-11-13T22:51:15.321Z,7.33
2022-11-13T22:53:57.216Z,9.23
2022-11-13T22:56:38.971Z,7.40
2022-11-13T22:59:19.551Z,8.10
2022-11-13T23:02:00.519Z,8.07
2022-11-13T23:04:41.497Z,8.33
2022-11-13T23:07:22.414Z,9.13
2022-11-13T23:10:03.274Z,7.60
2022-11-13T23:12:44.305Z,8.13
2022-11-13T23:15:25.294Z,8.37
2022-11-13T23:18:09.789Z,8.77
2022-11-13T23:20:50.863Z,8.43
2022-11-13T23:23:32.216Z,9.73
2022-11-13T23:26:13.860Z,9.77
2022-11-13T23:28:55.018Z,8.60
2022-11-13T23:31:35.976Z,8.63
2022-11-13T23:34:38.269Z,7.97
2022-11-13T23:37:17.502Z,8.57
2022-11-13T23:39:58.494Z,8.27
2022-11-13T23:42:54.861Z,8.83
2022-11-13T23:45:36.706Z,9.33
2022-11-13T23:48:18.059Z,8.83
2022-11-13T23:51:03.688Z,9.40
2022-11-13T23:53:57.107Z,8.87
2022-11-13T23:56:38.058Z,9.20
2022-11-13T23:59:22.825Z,9.23
